sensor_id;sensor_type;location;lat;lon;timestamp;temperature;humidity
13496;DHT22;6820;49.374;8.452;2023-04-24T00:01:32;13.50;99.99
13496;DHT22;6820;49.374;8.452;2023-04-24T00:05:35;13.48;99.99
13496;DHT22;6820;49.374;8.452;2023-04-24T00:09:37;13.54;99.99
13496;DHT22;6820;49.374;8.452;2023-04-24T00:13:38;13.53;99.99
13496;DHT22;6820;49.374;8.452;2023-04-24T00:17:41;13.48;99.99
13496;DHT22;6820;49.374;8.452;2023-04-24T00:21:42;13.46;99.99
13496;DHT22;6820;49.374;8.452;2023-04-24T00:25:44;13.50;99.99
13496;DHT22;6820;49.374;8.452;2023-04-24T00:29:45;13.53;99.99
13496;DHT22;6820;49.374;8.452;2023-04-24T00:33:47;13.50;99.99
13496;DHT22;6820;49.374;8.452;2023-04-24T00:37:49;13.54;99.99
13496;DHT22;6820;49.374;8.452;2023-04-24T00:41:51;13.44;99.99
13496;DHT22;6820;49.374;8.452;2023-04-24T00:45:53;13.43;99.99
13496;DHT22;6820;49.374;8.452;2023-04-24T00:49:56;13.38;99.99
13496;DHT22;6820;49.374;8.452;2023-04-24T00:53:57;13.32;99.99
13496;DHT22;6820;49.374;8.452;2023-04-24T00:57:59;13.28;99.99
13496;DHT22;6820;49.374;8.452;2023-04-24T01:02:01;13.19;99.99
13496;DHT22;6820;49.374;8.452;2023-04-24T01:06:02;13.22;99.99
13496;DHT22;6820;49.374;8.452;2023-04-24T01:10:06;13.22;99.99
13496;DHT22;6820;49.374;8.452;2023-04-24T01:14:09;13.25;99.99
13496;DHT22;6820;49.374;8.452;2023-04-24T01:18:11;13.24;99.99
13496;DHT22;6820;49.374;8.452;2023-04-24T01:22:13;13.22;99.99
13496;DHT22;6820;49.374;8.452;2023-04-24T01:26:16;13.22;99.99
13496;DHT22;6820;49.374;8.452;2023-04-24T01:30:18;13.22;99.99
13496;DHT22;6820;49.374;8.452;2023-04-24T01:34:20;13.14;99.99
13496;DHT22;6820;49.374;8.452;2023-04-24T01:38:22;13.14;99.99
13496;DHT22;6820;49.374;8.452;2023-04-24T01:42:23;13.14;99.99
13496;DHT22;6820;49.374;8.452;2023-04-24T01:46:25;13.07;99.99
13496;DHT22;6820;49.374;8.452;2023-04-24T01:50:27;13.09;99.99
13496;DHT22;6820;49.374;8.452;2023-04-24T01:54:29;13.12;99.99
13496;DHT22;6820;49.374;8.452;2023-04-24T01:58:31;13.13;99.99
13496;DHT22;6820;49.374;8.452;2023-04-24T02:02:33;13.07;99.99
13496;DHT22;6820;49.374;8.452;2023-04-24T02:06:36;13.09;99.99
13496;DHT22;6820;49.374;8.452;2023-04-24T02:10:37;13.07;99.99
13496;DHT22;6820;49.374;8.452;2023-04-24T02:14:39;13.09;99.99
13496;DHT22;6820;49.374;8.452;2023-04-24T02:18:40;13.09;99.99
13496;DHT22;6820;49.374;8.452;2023-04-24T02:22:42;13.10;99.99
13496;DHT22;6820;49.374;8.452;2023-04-24T02:26:44;13.07;99.99
13496;DHT22;6820;49.374;8.452;2023-04-24T02:30:45;13.04;99.99
13496;DHT22;6820;49.374;8.452;2023-04-24T02:34:47;13.03;99.99
13496;DHT22;6820;49.374;8.452;2023-04-24T02:38:49;13.03;99.99
13496;DHT22;6820;49.374;8.452;2023-04-24T02:42:50;13.06;99.99
13496;DHT22;6820;49.374;8.452;2023-04-24T02:46:52;13.10;99.99
13496;DHT22;6820;49.374;8.452;2023-04-24T02:50:54;13.12;99.99
13496;DHT22;6820;49.374;8.452;2023-04-24T02:54:55;12.88;99.99
13496;DHT22;6820;49.374;8.452;2023-04-24T02:58:57;12.80;99.99
13496;DHT22;6820;49.374;8.452;2023-04-24T03:03:01;12.62;99.99
13496;DHT22;6820;49.374;8.452;2023-04-24T03:07:03;12.48;99.99
13496;DHT22;6820;49.374;8.452;2023-04-24T03:11:05;12.37;99.99
13496;DHT22;6820;49.374;8.452;2023-04-24T03:15:07;12.30;99.99
13496;DHT22;6820;49.374;8.452;2023-04-24T03:19:11;12.15;99.99
13496;DHT22;6820;49.374;8.452;2023-04-24T03:23:22;12.16;99.99
13496;DHT22;6820;49.374;8.452;2023-04-24T03:27:24;12.23;99.99
13496;DHT22;6820;49.374;8.452;2023-04-24T03:31:33;12.30;99.99
13496;DHT22;6820;49.374;8.452;2023-04-24T03:35:35;12.34;99.99
13496;DHT22;6820;49.374;8.452;2023-04-24T03:39:42;12.33;99.99
13496;DHT22;6820;49.374;8.452;2023-04-24T03:43:45;12.29;99.99
13496;DHT22;6820;49.374;8.452;2023-04-24T03:47:47;12.19;99.99
13496;DHT22;6820;49.374;8.452;2023-04-24T03:51:49;12.18;99.99
13496;DHT22;6820;49.374;8.452;2023-04-24T03:55:56;12.13;99.99
13496;DHT22;6820;49.374;8.452;2023-04-24T03:59:58;12.07;99.99
13496;DHT22;6820;49.374;8.452;2023-04-24T04:04:00;12.00;99.99
13496;DHT22;6820;49.374;8.452;2023-04-24T04:08:04;11.90;99.99
13496;DHT22;6820;49.374;8.452;2023-04-24T04:12:07;11.84;99.99
13496;DHT22;6820;49.374;8.452;2023-04-24T04:16:09;11.78;99.99
13496;DHT22;6820;49.374;8.452;2023-04-24T04:20:11;11.75;99.99
13496;DHT22;6820;49.374;8.452;2023-04-24T04:24:14;11.69;99.99
13496;DHT22;6820;49.374;8.452;2023-04-24T04:28:19;11.64;99.99
13496;DHT22;6820;49.374;8.452;2023-04-24T04:32:22;11.57;99.99
13496;DHT22;6820;49.374;8.452;2023-04-24T04:36:24;11.48;99.99
13496;DHT22;6820;49.374;8.452;2023-04-24T04:40:33;11.45;99.99
13496;DHT22;6820;49.374;8.452;2023-04-24T04:44:39;11.45;99.99
13496;DHT22;6820;49.374;8.452;2023-04-24T04:48:43;11.46;99.99
13496;DHT22;6820;49.374;8.452;2023-04-24T04:52:45;11.46;99.99
13496;DHT22;6820;49.374;8.452;2023-04-24T04:56:59;11.41;99.99
13496;DHT22;6820;49.374;8.452;2023-04-24T05:01:05;11.44;99.99
13496;DHT22;6820;49.374;8.452;2023-04-24T05:05:12;11.51;99.99
13496;DHT22;6820;49.374;8.452;2023-04-24T05:09:14;11.51;99.99
13496;DHT22;6820;49.374;8.452;2023-04-24T05:13:22;11.56;99.99
13496;DHT22;6820;49.374;8.452;2023-04-24T05:17:43;11.60;99.99
13496;DHT22;6820;49.374;8.452;2023-04-24T05:21:47;11.64;99.99
13496;DHT22;6820;49.374;8.452;2023-04-24T05:25:49;11.57;99.99
13496;DHT22;6820;49.374;8.452;2023-04-24T05:29:51;11.64;99.99
13496;DHT22;6820;49.374;8.452;2023-04-24T05:33:52;11.64;99.99
13496;DHT22;6820;49.374;8.452;2023-04-24T05:37:54;11.78;99.99
13496;DHT22;6820;49.374;8.452;2023-04-24T05:41:56;11.94;99.99
13496;DHT22;6820;49.374;8.452;2023-04-24T05:45:59;12.01;99.99
13496;DHT22;6820;49.374;8.452;2023-04-24T05:50:01;12.07;99.99
13496;DHT22;6820;49.374;8.452;2023-04-24T05:54:02;12.16;99.99
13496;DHT22;6820;49.374;8.452;2023-04-24T05:58:05;12.16;99.99
13496;DHT22;6820;49.374;8.452;2023-04-24T06:02:09;12.18;99.99
13496;DHT22;6820;49.374;8.452;2023-04-24T06:06:11;12.11;99.99
13496;DHT22;6820;49.374;8.452;2023-04-24T06:10:12;12.12;99.99
13496;DHT22;6820;49.374;8.452;2023-04-24T06:14:17;12.15;99.99
13496;DHT22;6820;49.374;8.452;2023-04-24T06:18:47;12.15;99.99
13496;DHT22;6820;49.374;8.452;2023-04-24T06:22:49;12.18;99.99
13496;DHT22;6820;49.374;8.452;2023-04-24T06:26:51;12.13;99.99
13496;DHT22;6820;49.374;8.452;2023-04-24T06:30:53;12.12;99.99
13496;DHT22;6820;49.374;8.452;2023-04-24T06:34:54;12.21;99.99
13496;DHT22;6820;49.374;8.452;2023-04-24T06:38:58;12.16;99.99
13496;DHT22;6820;49.374;8.452;2023-04-24T06:43:00;12.04;99.99
13496;DHT22;6820;49.374;8.452;2023-04-24T06:47:04;11.67;99.99
13496;DHT22;6820;49.374;8.452;2023-04-24T06:51:06;11.42;99.99
13496;DHT22;6820;49.374;8.452;2023-04-24T06:55:07;11.19;99.99
13496;DHT22;6820;49.374;8.452;2023-04-24T06:59:09;11.20;99.99
13496;DHT22;6820;49.374;8.452;2023-04-24T07:03:11;11.17;99.99
13496;DHT22;6820;49.374;8.452;2023-04-24T07:07:13;11.19;99.99
13496;DHT22;6820;49.374;8.452;2023-04-24T07:11:15;11.33;99.99
13496;DHT22;6820;49.374;8.452;2023-04-24T07:15:17;11.35;99.99
13496;DHT22;6820;49.374;8.452;2023-04-24T07:19:18;11.41;99.99
13496;DHT22;6820;49.374;8.452;2023-04-24T07:23:20;11.60;99.99
13496;DHT22;6820;49.374;8.452;2023-04-24T07:27:24;11.77;99.99
13496;DHT22;6820;49.374;8.452;2023-04-24T07:31:26;11.81;99.99
13496;DHT22;6820;49.374;8.452;2023-04-24T07:35:28;11.75;99.99
13496;DHT22;6820;49.374;8.452;2023-04-24T07:39:30;11.66;99.99
13496;DHT22;6820;49.374;8.452;2023-04-24T07:43:31;11.70;99.99
13496;DHT22;6820;49.374;8.452;2023-04-24T07:47:33;11.87;99.99
13496;DHT22;6820;49.374;8.452;2023-04-24T07:51:35;11.96;99.99
13496;DHT22;6820;49.374;8.452;2023-04-24T07:55:39;12.12;99.99
13496;DHT22;6820;49.374;8.452;2023-04-24T07:59:41;12.26;99.99
13496;DHT22;6820;49.374;8.452;2023-04-24T08:03:43;12.26;99.99
13496;DHT22;6820;49.374;8.452;2023-04-24T08:07:46;12.37;99.99
13496;DHT22;6820;49.374;8.452;2023-04-24T08:11:49;12.55;99.99
13496;DHT22;6820;49.374;8.452;2023-04-24T08:15:51;12.80;99.99
13496;DHT22;6820;49.374;8.452;2023-04-24T08:19:53;12.81;99.99
13496;DHT22;6820;49.374;8.452;2023-04-24T08:24:02;12.89;99.99
13496;DHT22;6820;49.374;8.452;2023-04-24T08:28:06;12.81;99.99
13496;DHT22;6820;49.374;8.452;2023-04-24T08:32:10;12.73;99.99
13496;DHT22;6820;49.374;8.452;2023-04-24T08:36:12;12.51;99.99
13496;DHT22;6820;49.374;8.452;2023-04-24T08:40:14;12.38;99.99
13496;DHT22;6820;49.374;8.452;2023-04-24T08:44:17;12.55;99.99
13496;DHT22;6820;49.374;8.452;2023-04-24T08:48:19;12.92;99.99
13496;DHT22;6820;49.374;8.452;2023-04-24T08:52:32;13.24;99.99
13496;DHT22;6820;49.374;8.452;2023-04-24T08:56:36;13.36;99.99
13496;DHT22;6820;49.374;8.452;2023-04-24T09:00:40;13.16;99.99
13496;DHT22;6820;49.374;8.452;2023-04-24T09:04:47;13.39;99.99
13496;DHT22;6820;49.374;8.452;2023-04-24T09:08:51;13.32;99.99
13496;DHT22;6820;49.374;8.452;2023-04-24T09:12:55;13.12;99.99
13496;DHT22;6820;49.374;8.452;2023-04-24T09:16:59;12.84;99.99
13496;DHT22;6820;49.374;8.452;2023-04-24T09:21:08;12.55;99.99
13496;DHT22;6820;49.374;8.452;2023-04-24T09:25:11;12.55;99.99
13496;DHT22;6820;49.374;8.452;2023-04-24T09:29:17;12.80;99.99
13496;DHT22;6820;49.374;8.452;2023-04-24T09:33:19;12.92;99.99
13496;DHT22;6820;49.374;8.452;2023-04-24T09:37:28;13.12;99.99
13496;DHT22;6820;49.374;8.452;2023-04-24T09:41:31;13.28;99.99
13496;DHT22;6820;49.374;8.452;2023-04-24T09:45:37;13.54;99.99
13496;DHT22;6820;49.374;8.452;2023-04-24T09:49:40;13.94;99.99
13496;DHT22;6820;49.374;8.452;2023-04-24T09:53:45;14.11;99.99
13496;DHT22;6820;49.374;8.452;2023-04-24T09:58:00;14.04;99.99
13496;DHT22;6820;49.374;8.452;2023-04-24T10:02:02;13.94;99.99
13496;DHT22;6820;49.374;8.452;2023-04-24T10:06:04;13.91;99.99
13496;DHT22;6820;49.374;8.452;2023-04-24T10:10:10;13.63;99.99
13496;DHT22;6820;49.374;8.452;2023-04-24T10:14:16;13.43;99.99
13496;DHT22;6820;49.374;8.452;2023-04-24T10:18:22;13.29;99.99
13496;DHT22;6820;49.374;8.452;2023-04-24T10:22:25;13.21;99.99
13496;DHT22;6820;49.374;8.452;2023-04-24T10:26:28;13.21;99.99
13496;DHT22;6820;49.374;8.452;2023-04-24T10:30:33;13.36;99.99
13496;DHT22;6820;49.374;8.452;2023-04-24T10:34:38;13.41;99.99
13496;DHT22;6820;49.374;8.452;2023-04-24T10:38:41;13.50;99.99
13496;DHT22;6820;49.374;8.452;2023-04-24T10:42:48;13.75;99.99
13496;DHT22;6820;49.374;8.452;2023-04-24T10:46:52;14.11;99.99
13496;DHT22;6820;49.374;8.452;2023-04-24T10:50:56;13.94;99.99
13496;DHT22;6820;49.374;8.452;2023-04-24T10:54:59;13.84;99.99
13496;DHT22;6820;49.374;8.452;2023-04-24T10:59:03;14.13;99.99
13496;DHT22;6820;49.374;8.452;2023-04-24T11:03:22;14.29;99.99
13496;DHT22;6820;49.374;8.452;2023-04-24T11:07:26;14.21;99.99
13496;DHT22;6820;49.374;8.452;2023-04-24T11:11:30;14.27;99.99
13496;DHT22;6820;49.374;8.452;2023-04-24T11:15:32;14.53;99.99
13496;DHT22;6820;49.374;8.452;2023-04-24T11:19:34;14.67;99.99
13496;DHT22;6820;49.374;8.452;2023-04-24T11:23:37;14.46;99.99
13496;DHT22;6820;49.374;8.452;2023-04-24T11:27:41;14.72;99.99
13496;DHT22;6820;49.374;8.452;2023-04-24T11:31:47;15.00;99.99
13496;DHT22;6820;49.374;8.452;2023-04-24T11:35:52;15.37;99.99
13496;DHT22;6820;49.374;8.452;2023-04-24T11:39:55;15.53;99.99
13496;DHT22;6820;49.374;8.452;2023-04-24T11:43:58;15.77;99.99
13496;DHT22;6820;49.374;8.452;2023-04-24T11:48:00;15.98;99.99
13496;DHT22;6820;49.374;8.452;2023-04-24T11:52:05;15.43;99.99
13496;DHT22;6820;49.374;8.452;2023-04-24T11:56:08;14.78;99.99
13496;DHT22;6820;49.374;8.452;2023-04-24T12:04:20;14.54;99.99
13496;DHT22;6820;49.374;8.452;2023-04-24T12:08:28;14.78;99.99
13496;DHT22;6820;49.374;8.452;2023-04-24T12:12:30;14.97;99.99
13496;DHT22;6820;49.374;8.452;2023-04-24T12:16:32;15.01;99.99
13496;DHT22;6820;49.374;8.452;2023-04-24T12:20:35;14.87;99.99
13496;DHT22;6820;49.374;8.452;2023-04-24T12:24:54;15.04;99.99
13496;DHT22;6820;49.374;8.452;2023-04-24T12:29:02;14.87;99.99
13496;DHT22;6820;49.374;8.452;2023-04-24T12:33:04;15.27;99.99
13496;DHT22;6820;49.374;8.452;2023-04-24T12:37:10;15.25;99.99
13496;DHT22;6820;49.374;8.452;2023-04-24T12:41:13;15.35;99.99
13496;DHT22;6820;49.374;8.452;2023-04-24T12:45:15;15.37;99.99
13496;DHT22;6820;49.374;8.452;2023-04-24T12:49:18;15.73;99.99
13496;DHT22;6820;49.374;8.452;2023-04-24T12:53:20;16.22;99.99
13496;DHT22;6820;49.374;8.452;2023-04-24T12:57:22;16.57;99.99
13496;DHT22;6820;49.374;8.452;2023-04-24T13:01:25;16.36;99.99
13496;DHT22;6820;49.374;8.452;2023-04-24T13:05:27;15.80;99.99
13496;DHT22;6820;49.374;8.452;2023-04-24T13:09:29;15.86;99.99
13496;DHT22;6820;49.374;8.452;2023-04-24T13:13:31;15.68;99.99
13496;DHT22;6820;49.374;8.452;2023-04-24T13:17:32;15.66;99.99
13496;DHT22;6820;49.374;8.452;2023-04-24T13:21:34;15.67;99.99
13496;DHT22;6820;49.374;8.452;2023-04-24T13:25:36;16.17;99.99
13496;DHT22;6820;49.374;8.452;2023-04-24T13:29:38;16.44;99.99
13496;DHT22;6820;49.374;8.452;2023-04-24T13:33:40;16.30;99.99
13496;DHT22;6820;49.374;8.452;2023-04-24T13:37:42;16.23;99.99
13496;DHT22;6820;49.374;8.452;2023-04-24T13:41:44;15.93;99.99
13496;DHT22;6820;49.374;8.452;2023-04-24T13:45:46;15.60;99.99
13496;DHT22;6820;49.374;8.452;2023-04-24T13:49:48;15.55;99.99
13496;DHT22;6820;49.374;8.452;2023-04-24T13:53:49;15.30;99.99
13496;DHT22;6820;49.374;8.452;2023-04-24T13:57:51;15.23;99.99
13496;DHT22;6820;49.374;8.452;2023-04-24T14:01:53;15.12;99.99
13496;DHT22;6820;49.374;8.452;2023-04-24T14:05:55;15.09;99.99
13496;DHT22;6820;49.374;8.452;2023-04-24T14:09:56;15.15;99.99
13496;DHT22;6820;49.374;8.452;2023-04-24T14:13:58;15.05;99.99
13496;DHT22;6820;49.374;8.452;2023-04-24T14:18:00;14.94;99.99
13496;DHT22;6820;49.374;8.452;2023-04-24T14:22:03;15.03;99.99
13496;DHT22;6820;49.374;8.452;2023-04-24T14:26:05;15.01;99.99
13496;DHT22;6820;49.374;8.452;2023-04-24T14:30:07;14.91;99.99
13496;DHT22;6820;49.374;8.452;2023-04-24T14:34:09;14.71;99.99
13496;DHT22;6820;49.374;8.452;2023-04-24T14:38:11;14.45;99.99
13496;DHT22;6820;49.374;8.452;2023-04-24T14:42:12;14.39;99.99
13496;DHT22;6820;49.374;8.452;2023-04-24T14:46:14;14.31;99.99
13496;DHT22;6820;49.374;8.452;2023-04-24T14:50:16;15.18;99.99
13496;DHT22;6820;49.374;8.452;2023-04-24T14:54:18;15.22;99.99
13496;DHT22;6820;49.374;8.452;2023-04-24T14:58:23;15.30;99.99
13496;DHT22;6820;49.374;8.452;2023-04-24T15:02:25;15.27;99.99
13496;DHT22;6820;49.374;8.452;2023-04-24T15:06:27;15.27;99.99
13496;DHT22;6820;49.374;8.452;2023-04-24T15:10:29;15.25;99.99
13496;DHT22;6820;49.374;8.452;2023-04-24T15:14:30;15.25;99.99
13496;DHT22;6820;49.374;8.452;2023-04-24T15:18:32;15.25;99.99
13496;DHT22;6820;49.374;8.452;2023-04-24T15:22:34;15.15;99.99
13496;DHT22;6820;49.374;8.452;2023-04-24T15:26:36;14.91;99.99
13496;DHT22;6820;49.374;8.452;2023-04-24T15:30:37;14.75;99.99
13496;DHT22;6820;49.374;8.452;2023-04-24T15:34:39;14.59;99.99
13496;DHT22;6820;49.374;8.452;2023-04-24T15:38:40;14.46;99.99
13496;DHT22;6820;49.374;8.452;2023-04-24T15:42:44;14.38;99.99
13496;DHT22;6820;49.374;8.452;2023-04-24T15:46:46;14.39;99.99
13496;DHT22;6820;49.374;8.452;2023-04-24T15:50:48;14.46;99.99
13496;DHT22;6820;49.374;8.452;2023-04-24T15:54:50;14.63;99.99
13496;DHT22;6820;49.374;8.452;2023-04-24T15:58:52;14.90;99.99
13496;DHT22;6820;49.374;8.452;2023-04-24T16:02:53;14.90;99.99
13496;DHT22;6820;49.374;8.452;2023-04-24T16:06:55;15.07;99.99
13496;DHT22;6820;49.374;8.452;2023-04-24T16:10:57;15.13;99.99
13496;DHT22;6820;49.374;8.452;2023-04-24T16:14:59;15.81;99.99
13496;DHT22;6820;49.374;8.452;2023-04-24T16:19:01;15.67;99.99
13496;DHT22;6820;49.374;8.452;2023-04-24T16:23:03;15.41;99.99
13496;DHT22;6820;49.374;8.452;2023-04-24T16:27:04;15.33;99.99
13496;DHT22;6820;49.374;8.452;2023-04-24T16:31:06;15.67;99.99
13496;DHT22;6820;49.374;8.452;2023-04-24T16:35:08;15.53;99.99
13496;DHT22;6820;49.374;8.452;2023-04-24T16:39:09;15.41;99.99
13496;DHT22;6820;49.374;8.452;2023-04-24T16:43:11;15.25;99.99
13496;DHT22;6820;49.374;8.452;2023-04-24T16:47:13;15.31;99.99
13496;DHT22;6820;49.374;8.452;2023-04-24T16:51:15;15.20;99.99
13496;DHT22;6820;49.374;8.452;2023-04-24T16:55:16;15.09;99.99
13496;DHT22;6820;49.374;8.452;2023-04-24T16:59:18;14.91;99.99
13496;DHT22;6820;49.374;8.452;2023-04-24T17:03:20;14.74;99.99
13496;DHT22;6820;49.374;8.452;2023-04-24T17:07:22;14.61;99.99
13496;DHT22;6820;49.374;8.452;2023-04-24T17:11:23;14.61;99.99
13496;DHT22;6820;49.374;8.452;2023-04-24T17:15:25;14.49;99.99
13496;DHT22;6820;49.374;8.452;2023-04-24T17:19:27;14.46;99.99
13496;DHT22;6820;49.374;8.452;2023-04-24T17:23:29;14.36;99.99
13496;DHT22;6820;49.374;8.452;2023-04-24T17:27:31;14.38;99.99
13496;DHT22;6820;49.374;8.452;2023-04-24T17:31:33;14.20;99.99
13496;DHT22;6820;49.374;8.452;2023-04-24T17:35:35;14.20;99.99
13496;DHT22;6820;49.374;8.452;2023-04-24T17:39:36;14.05;99.99
13496;DHT22;6820;49.374;8.452;2023-04-24T17:43:38;13.99;99.99
13496;DHT22;6820;49.374;8.452;2023-04-24T17:47:40;13.91;99.99
13496;DHT22;6820;49.374;8.452;2023-04-24T17:51:42;13.93;99.99
13496;DHT22;6820;49.374;8.452;2023-04-24T17:55:44;13.81;99.99
13496;DHT22;6820;49.374;8.452;2023-04-24T17:59:49;13.73;99.99
13496;DHT22;6820;49.374;8.452;2023-04-24T18:03:50;13.63;99.99
13496;DHT22;6820;49.374;8.452;2023-04-24T18:07:53;13.59;99.99
13496;DHT22;6820;49.374;8.452;2023-04-24T18:11:55;13.55;99.99
13496;DHT22;6820;49.374;8.452;2023-04-24T18:15:57;13.46;99.99
13496;DHT22;6820;49.374;8.452;2023-04-24T18:19:59;13.32;99.99
13496;DHT22;6820;49.374;8.452;2023-04-24T18:24:01;13.31;99.99
13496;DHT22;6820;49.374;8.452;2023-04-24T18:28:02;13.28;99.99
13496;DHT22;6820;49.374;8.452;2023-04-24T18:32:04;13.24;99.99
13496;DHT22;6820;49.374;8.452;2023-04-24T18:36:06;13.22;99.99
13496;DHT22;6820;49.374;8.452;2023-04-24T18:40:08;13.22;99.99
13496;DHT22;6820;49.374;8.452;2023-04-24T18:44:09;13.21;99.99
13496;DHT22;6820;49.374;8.452;2023-04-24T18:48:12;13.17;99.99
13496;DHT22;6820;49.374;8.452;2023-04-24T18:52:13;13.12;99.99
13496;DHT22;6820;49.374;8.452;2023-04-24T18:56:15;13.07;99.99
13496;DHT22;6820;49.374;8.452;2023-04-24T19:00:17;13.09;99.99
13496;DHT22;6820;49.374;8.452;2023-04-24T19:04:19;13.01;99.99
13496;DHT22;6820;49.374;8.452;2023-04-24T19:08:21;13.03;99.99
13496;DHT22;6820;49.374;8.452;2023-04-24T19:12:23;13.01;99.99
13496;DHT22;6820;49.374;8.452;2023-04-24T19:16:25;12.95;99.99
13496;DHT22;6820;49.374;8.452;2023-04-24T19:20:26;12.87;99.99
13496;DHT22;6820;49.374;8.452;2023-04-24T19:24:28;12.79;99.99
13496;DHT22;6820;49.374;8.452;2023-04-24T19:28:33;12.63;99.99
13496;DHT22;6820;49.374;8.452;2023-04-24T19:32:34;12.51;99.99
13496;DHT22;6820;49.374;8.452;2023-04-24T19:36:36;12.49;99.99
13496;DHT22;6820;49.374;8.452;2023-04-24T19:40:37;12.51;99.99
13496;DHT22;6820;49.374;8.452;2023-04-24T19:44:39;12.49;99.99
13496;DHT22;6820;49.374;8.452;2023-04-24T19:48:41;12.41;99.99
13496;DHT22;6820;49.374;8.452;2023-04-24T19:52:42;12.41;99.99
13496;DHT22;6820;49.374;8.452;2023-04-24T19:56:44;12.40;99.99
13496;DHT22;6820;49.374;8.452;2023-04-24T20:00:46;12.29;99.99
13496;DHT22;6820;49.374;8.452;2023-04-24T20:04:47;12.30;99.99
13496;DHT22;6820;49.374;8.452;2023-04-24T20:08:49;12.29;99.99
13496;DHT22;6820;49.374;8.452;2023-04-24T20:12:51;12.29;99.99
13496;DHT22;6820;49.374;8.452;2023-04-24T20:16:53;12.22;99.99
13496;DHT22;6820;49.374;8.452;2023-04-24T20:20:55;12.19;99.99
13496;DHT22;6820;49.374;8.452;2023-04-24T20:25:00;12.19;99.99
13496;DHT22;6820;49.374;8.452;2023-04-24T20:29:03;12.21;99.99
13496;DHT22;6820;49.374;8.452;2023-04-24T20:33:05;12.21;99.99
13496;DHT22;6820;49.374;8.452;2023-04-24T20:37:07;12.23;99.99
13496;DHT22;6820;49.374;8.452;2023-04-24T20:41:08;12.23;99.99
13496;DHT22;6820;49.374;8.452;2023-04-24T20:45:10;12.25;99.99
13496;DHT22;6820;49.374;8.452;2023-04-24T20:49:12;12.25;99.99
13496;DHT22;6820;49.374;8.452;2023-04-24T20:53:13;12.29;99.99
13496;DHT22;6820;49.374;8.452;2023-04-24T20:57:15;12.26;99.99
13496;DHT22;6820;49.374;8.452;2023-04-24T21:01:17;12.31;99.99
13496;DHT22;6820;49.374;8.452;2023-04-24T21:05:19;12.33;99.99
13496;DHT22;6820;49.374;8.452;2023-04-24T21:09:20;12.33;99.99
13496;DHT22;6820;49.374;8.452;2023-04-24T21:13:22;12.34;99.99
13496;DHT22;6820;49.374;8.452;2023-04-24T21:17:24;12.30;99.99
13496;DHT22;6820;49.374;8.452;2023-04-24T21:21:26;12.26;99.99
13496;DHT22;6820;49.374;8.452;2023-04-24T21:25:27;12.23;99.99
13496;DHT22;6820;49.374;8.452;2023-04-24T21:29:31;12.18;99.99
13496;DHT22;6820;49.374;8.452;2023-04-24T21:33:32;12.18;99.99
13496;DHT22;6820;49.374;8.452;2023-04-24T21:37:34;12.21;99.99
13496;DHT22;6820;49.374;8.452;2023-04-24T21:41:38;12.16;99.99
13496;DHT22;6820;49.374;8.452;2023-04-24T21:45:39;12.15;99.99
13496;DHT22;6820;49.374;8.452;2023-04-24T21:49:41;12.13;99.99
13496;DHT22;6820;49.374;8.452;2023-04-24T21:53:43;12.04;99.99
13496;DHT22;6820;49.374;8.452;2023-04-24T21:57:45;12.04;99.99
13496;DHT22;6820;49.374;8.452;2023-04-24T22:01:46;12.04;99.99
13496;DHT22;6820;49.374;8.452;2023-04-24T22:05:48;12.01;99.99
13496;DHT22;6820;49.374;8.452;2023-04-24T22:09:50;11.97;99.99
13496;DHT22;6820;49.374;8.452;2023-04-24T22:13:52;11.93;99.99
13496;DHT22;6820;49.374;8.452;2023-04-24T22:17:54;11.84;99.99
13496;DHT22;6820;49.374;8.452;2023-04-24T22:21:57;11.88;99.99
13496;DHT22;6820;49.374;8.452;2023-04-24T22:25:59;11.96;99.99
13496;DHT22;6820;49.374;8.452;2023-04-24T22:30:01;12.01;99.99
13496;DHT22;6820;49.374;8.452;2023-04-24T22:34:02;12.04;99.99
13496;DHT22;6820;49.374;8.452;2023-04-24T22:38:04;12.04;99.99
13496;DHT22;6820;49.374;8.452;2023-04-24T22:42:06;12.07;99.99
13496;DHT22;6820;49.374;8.452;2023-04-24T22:46:07;12.03;99.99
13496;DHT22;6820;49.374;8.452;2023-04-24T22:50:09;12.04;99.99
13496;DHT22;6820;49.374;8.452;2023-04-24T22:54:11;12.03;99.99
13496;DHT22;6820;49.374;8.452;2023-04-24T22:58:13;12.01;99.99
13496;DHT22;6820;49.374;8.452;2023-04-24T23:02:16;12.03;99.99
13496;DHT22;6820;49.374;8.452;2023-04-24T23:06:17;11.96;99.99
13496;DHT22;6820;49.374;8.452;2023-04-24T23:10:19;11.94;99.99
13496;DHT22;6820;49.374;8.452;2023-04-24T23:14:21;11.87;99.99
13496;DHT22;6820;49.374;8.452;2023-04-24T23:18:24;11.88;99.99
13496;DHT22;6820;49.374;8.452;2023-04-24T23:22:26;11.87;99.99
13496;DHT22;6820;49.374;8.452;2023-04-24T23:26:28;11.84;99.99
13496;DHT22;6820;49.374;8.452;2023-04-24T23:30:29;11.79;99.99
13496;DHT22;6820;49.374;8.452;2023-04-24T23:34:31;11.78;99.99
13496;DHT22;6820;49.374;8.452;2023-04-24T23:38:34;11.75;99.99
13496;DHT22;6820;49.374;8.452;2023-04-24T23:42:49;11.78;99.99
13496;DHT22;6820;49.374;8.452;2023-04-24T23:47:03;11.78;99.99
13496;DHT22;6820;49.374;8.452;2023-04-24T23:51:05;11.75;99.99
13496;DHT22;6820;49.374;8.452;2023-04-24T23:55:06;11.74;99.99
13496;DHT22;6820;49.374;8.452;2023-04-24T23:59:09;11.69;99.99
